createdAt,value
2023-02-22T00:00:32.271Z,1014.57
2023-02-22T00:01:32.174Z,1014.53
2023-02-22T00:02:32.189Z,1014.46
2023-02-22T00:03:32.183Z,1014.48
2023-02-22T00:04:32.157Z,1014.46
2023-02-22T00:05:32.145Z,1014.52
2023-02-22T00:06:32.165Z,1014.55
2023-02-22T00:07:32.126Z,1014.58
2023-02-22T00:08:32.179Z,1014.59
2023-02-22T00:09:32.067Z,1014.54
2023-02-22T00:10:32.065Z,1014.55
2023-02-22T00:11:32.110Z,1014.56
2023-02-22T00:12:32.079Z,1014.59
2023-02-22T00:13:32.022Z,1014.59
2023-02-22T00:14:32.021Z,1014.58
2023-02-22T00:15:32.020Z,1014.59
2023-02-22T00:16:32.084Z,1014.64
2023-02-22T00:17:32.028Z,1014.61
2023-02-22T00:18:32.087Z,1014.63
2023-02-22T00:19:32.098Z,1014.57
2023-02-22T00:20:31.954Z,1014.56
2023-02-22T00:21:31.940Z,1014.54
2023-02-22T00:22:31.930Z,1014.54
2023-02-22T00:23:32.062Z,1014.57
2023-02-22T00:24:31.918Z,1014.55
2023-02-22T00:25:31.898Z,1014.51
2023-02-22T00:26:31.884Z,1014.53
2023-02-22T00:27:31.850Z,1014.55
2023-02-22T00:28:31.825Z,1014.54
2023-02-22T00:29:31.848Z,1014.54
2023-02-22T00:30:31.896Z,1014.55
2023-02-22T00:31:31.835Z,1014.50
2023-02-22T00:32:31.835Z,1014.51
2023-02-22T00:33:31.806Z,1014.51
2023-02-22T00:34:31.746Z,1014.50
2023-02-22T00:35:31.787Z,1014.46
2023-02-22T00:36:31.719Z,1014.48
2023-02-22T00:37:31.730Z,1014.50
2023-02-22T00:38:31.692Z,1014.52
2023-02-22T00:39:31.689Z,1014.53
2023-02-22T00:40:31.721Z,1014.50
2023-02-22T00:41:31.750Z,1014.51
2023-02-22T00:42:31.708Z,1014.50
2023-02-22T00:43:31.685Z,1014.49
2023-02-22T00:44:31.638Z,1014.48
2023-02-22T00:45:31.670Z,1014.46
2023-02-22T00:46:31.700Z,1014.48
2023-02-22T00:47:31.577Z,1014.45
2023-02-22T00:48:31.737Z,1014.45
2023-02-22T00:49:31.552Z,1014.41
2023-02-22T00:50:31.561Z,1014.37
2023-02-22T00:51:31.545Z,1014.33
2023-02-22T00:52:31.571Z,1014.33
2023-02-22T00:53:31.515Z,1014.30
2023-02-22T00:54:31.550Z,1014.32
2023-02-22T00:55:31.494Z,1014.32
2023-02-22T00:56:31.502Z,1014.25
2023-02-22T00:57:31.559Z,1014.28
2023-02-22T00:58:31.472Z,1014.21
2023-02-22T00:59:31.433Z,1014.24
2023-02-22T01:00:31.422Z,1014.20
2023-02-22T01:01:31.439Z,1014.23
2023-02-22T01:02:31.393Z,1014.21
2023-02-22T01:03:31.384Z,1014.24
2023-02-22T01:04:31.400Z,1014.26
2023-02-22T01:05:31.351Z,1014.25
2023-02-22T01:06:31.337Z,1014.24
2023-02-22T01:07:31.348Z,1014.19
2023-02-22T01:08:31.318Z,1014.26
2023-02-22T01:09:31.317Z,1014.24
2023-02-22T01:10:31.320Z,1014.27
2023-02-22T01:11:31.328Z,1014.25
2023-02-22T01:12:31.276Z,1014.27
2023-02-22T01:13:31.256Z,1014.29
2023-02-22T01:14:31.243Z,1014.32
2023-02-22T01:15:31.268Z,1014.33
2023-02-22T01:16:31.217Z,1014.30
2023-02-22T01:17:31.193Z,1014.30
2023-02-22T01:18:31.205Z,1014.27
2023-02-22T01:19:31.203Z,1014.29
2023-02-22T01:20:31.223Z,1014.30
2023-02-22T01:21:31.127Z,1014.31
2023-02-22T01:22:31.183Z,1014.23
2023-02-22T01:23:31.106Z,1014.26
2023-02-22T01:24:31.089Z,1014.27
2023-02-22T01:25:31.092Z,1014.30
2023-02-22T01:26:31.080Z,1014.27
2023-02-22T01:27:31.084Z,1014.26
2023-02-22T01:28:31.085Z,1014.20
2023-02-22T01:29:31.086Z,1014.22
2023-02-22T01:30:31.132Z,1014.19
2023-02-22T01:31:31.047Z,1014.22
2023-02-22T01:32:30.978Z,1014.19
2023-02-22T01:33:31.012Z,1014.18
2023-02-22T01:34:31.016Z,1014.16
2023-02-22T01:35:32.142Z,1014.15
2023-02-22T01:36:30.960Z,1014.14
2023-02-22T01:37:30.953Z,1014.15
2023-02-22T01:38:30.907Z,1014.10
2023-02-22T01:39:30.899Z,1014.12
2023-02-22T01:40:30.901Z,1014.09
2023-02-22T01:41:30.901Z,1014.09
2023-02-22T01:42:30.852Z,1014.12
2023-02-22T01:43:30.936Z,1014.12
2023-02-22T01:44:30.889Z,1014.10
2023-02-22T01:45:30.947Z,1014.10
2023-02-22T01:46:30.795Z,1014.11
2023-02-22T01:47:30.781Z,1014.06
2023-02-22T01:48:30.766Z,1014.07
2023-02-22T01:49:30.753Z,1014.08
2023-02-22T01:50:30.792Z,1014.10
2023-02-22T01:51:30.784Z,1014.09
2023-02-22T01:52:30.724Z,1014.12
2023-02-22T01:53:30.703Z,1014.12
2023-02-22T01:54:30.700Z,1014.10
2023-02-22T01:55:30.671Z,1014.08
2023-02-22T01:56:30.730Z,1014.07
2023-02-22T01:57:30.692Z,1014.03
2023-02-22T01:58:30.629Z,1014.03
2023-02-22T01:59:30.629Z,1014.02
2023-02-22T02:00:30.602Z,1014.00
2023-02-22T02:01:30.612Z,1013.97
2023-02-22T02:02:30.629Z,1013.98
2023-02-22T02:03:30.576Z,1013.97
2023-02-22T02:04:30.603Z,1013.97
2023-02-22T02:05:30.563Z,1013.91
2023-02-22T02:06:30.563Z,1013.88
2023-02-22T02:07:30.554Z,1013.89
2023-02-22T02:08:30.533Z,1013.88
2023-02-22T02:09:30.486Z,1013.84
2023-02-22T02:10:30.466Z,1013.86
2023-02-22T02:11:30.484Z,1013.82
2023-02-22T02:12:30.461Z,1013.79
2023-02-22T02:13:30.459Z,1013.78
2023-02-22T02:14:30.416Z,1013.77
2023-02-22T02:15:30.405Z,1013.74
2023-02-22T02:16:30.421Z,1013.71
2023-02-22T02:17:30.382Z,1013.73
2023-02-22T02:18:30.625Z,1013.74
2023-02-22T02:19:30.363Z,1013.72
2023-02-22T02:20:30.365Z,1013.69
2023-02-22T02:21:30.331Z,1013.68
2023-02-22T02:22:30.324Z,1013.65
2023-02-22T02:23:30.298Z,1013.66
2023-02-22T02:24:30.391Z,1013.64
2023-02-22T02:25:30.307Z,1013.62
2023-02-22T02:26:30.264Z,1013.58
2023-02-22T02:27:30.279Z,1013.58
2023-02-22T02:28:30.288Z,1013.60
2023-02-22T02:29:30.252Z,1013.59
2023-02-22T02:30:30.233Z,1013.63
2023-02-22T02:31:30.246Z,1013.62
2023-02-22T02:32:30.180Z,1013.59
2023-02-22T02:33:30.189Z,1013.61
2023-02-22T02:34:30.182Z,1013.64
2023-02-22T02:35:30.180Z,1013.60
2023-02-22T02:36:30.152Z,1013.60
2023-02-22T02:37:30.109Z,1013.61
2023-02-22T02:38:30.186Z,1013.62
2023-02-22T02:39:30.152Z,1013.58
2023-02-22T02:40:30.149Z,1013.57
2023-02-22T02:41:30.081Z,1013.53
2023-02-22T02:42:30.048Z,1013.54
2023-02-22T02:43:30.032Z,1013.51
2023-02-22T02:44:30.069Z,1013.53
2023-02-22T02:45:30.079Z,1013.50
2023-02-22T02:46:30.001Z,1013.42
2023-02-22T02:47:30.040Z,1013.45
2023-02-22T02:48:30.033Z,1013.41
2023-02-22T02:49:29.980Z,1013.44
2023-02-22T02:50:29.970Z,1013.43
2023-02-22T02:51:30.044Z,1013.40
2023-02-22T02:52:29.912Z,1013.39
2023-02-22T02:53:29.926Z,1013.39
2023-02-22T02:54:29.895Z,1013.36
2023-02-22T02:55:29.901Z,1013.36
2023-02-22T02:56:30.084Z,1013.27
2023-02-22T02:57:29.872Z,1013.25
2023-02-22T02:58:29.854Z,1013.24
2023-02-22T02:59:29.880Z,1013.27
2023-02-22T03:00:29.900Z,1013.27
2023-02-22T03:01:29.862Z,1013.21
2023-02-22T03:02:29.806Z,1013.24
2023-02-22T03:03:29.807Z,1013.27
2023-02-22T03:04:29.755Z,1013.21
2023-02-22T03:05:29.764Z,1013.19
2023-02-22T03:06:29.755Z,1013.22
2023-02-22T03:07:29.725Z,1013.16
2023-02-22T03:08:29.707Z,1013.21
2023-02-22T03:09:29.697Z,1013.19
2023-02-22T03:10:29.723Z,1013.20
2023-02-22T03:11:29.667Z,1013.20
2023-02-22T03:12:37.968Z,1013.18
2023-02-22T03:13:29.655Z,1013.14
2023-02-22T03:14:29.644Z,1013.15
2023-02-22T03:15:29.626Z,1013.12
2023-02-22T03:16:29.719Z,1013.12
2023-02-22T03:17:29.621Z,1013.08
2023-02-22T03:18:29.594Z,1013.12
2023-02-22T03:19:29.588Z,1013.16
2023-02-22T03:20:29.572Z,1013.09
2023-02-22T03:21:29.538Z,1013.12
2023-02-22T03:22:38.698Z,1013.11
2023-02-22T03:23:38.340Z,1013.11
2023-02-22T03:24:37.433Z,1013.10
2023-02-22T03:25:37.024Z,1013.10
2023-02-22T03:26:37.032Z,1013.08
2023-02-22T03:27:39.173Z,1013.11
2023-02-22T03:28:29.474Z,1013.09
2023-02-22T03:29:36.474Z,1013.05
2023-02-22T03:30:37.010Z,1013.05
2023-02-22T03:31:29.476Z,1013.04
2023-02-22T03:32:29.400Z,1013.06
2023-02-22T03:33:29.410Z,1013.08
2023-02-22T03:34:29.491Z,1013.06
2023-02-22T03:35:29.430Z,1013.07
2023-02-22T03:36:29.388Z,1013.08
2023-02-22T03:37:29.418Z,1013.03
2023-02-22T03:38:29.472Z,1013.05
2023-02-22T03:39:29.323Z,1013.01
2023-02-22T03:40:29.324Z,1013.01
2023-02-22T03:41:29.330Z,1013.03
2023-02-22T03:42:29.274Z,1012.99
2023-02-22T03:43:29.267Z,1013.03
2023-02-22T03:44:29.270Z,1013.00
2023-02-22T03:45:29.237Z,1013.02
2023-02-22T03:46:29.309Z,1013.02
2023-02-22T03:47:29.216Z,1013.04
2023-02-22T03:48:29.222Z,1013.03
2023-02-22T03:49:29.212Z,1013.05
2023-02-22T03:50:29.178Z,1013.04
2023-02-22T03:51:29.185Z,1013.06
2023-02-22T03:52:29.154Z,1013.05
2023-02-22T03:53:29.149Z,1013.00
2023-02-22T03:54:29.133Z,1013.04
2023-02-22T03:55:29.133Z,1012.97
2023-02-22T03:56:29.132Z,1013.00
2023-02-22T03:57:29.121Z,1013.05
2023-02-22T03:58:29.073Z,1012.98
2023-02-22T03:59:29.090Z,1012.98
2023-02-22T04:00:29.194Z,1012.95
2023-02-22T04:01:29.053Z,1012.99
2023-02-22T04:02:29.047Z,1012.97
2023-02-22T04:03:29.018Z,1012.99
2023-02-22T04:04:29.105Z,1013.01
2023-02-22T04:05:29.013Z,1012.98
2023-02-22T04:06:29.001Z,1013.05
2023-02-22T04:07:29.016Z,1013.05
2023-02-22T04:08:29.065Z,1013.04
2023-02-22T04:09:29.006Z,1013.06
2023-02-22T04:10:28.949Z,1013.09
2023-02-22T04:11:28.914Z,1013.12
2023-02-22T04:12:28.939Z,1013.07
2023-02-22T04:13:28.944Z,1013.12
2023-02-22T04:14:29.719Z,1013.15
2023-02-22T04:15:28.896Z,1013.14
2023-02-22T04:16:28.858Z,1013.15
2023-02-22T04:17:28.860Z,1013.14
2023-02-22T04:18:28.837Z,1013.17
2023-02-22T04:19:28.827Z,1013.22
2023-02-22T04:20:28.835Z,1013.19
2023-02-22T04:21:28.826Z,1013.19
2023-02-22T04:22:28.788Z,1013.14
2023-02-22T04:23:28.777Z,1013.15
2023-02-22T04:24:30.523Z,1013.16
2023-02-22T04:25:28.766Z,1013.18
2023-02-22T04:26:28.752Z,1013.22
2023-02-22T04:27:28.724Z,1013.20
2023-02-22T04:28:28.746Z,1013.22
2023-02-22T04:29:28.783Z,1013.22
2023-02-22T04:30:28.750Z,1013.16
2023-02-22T04:31:28.732Z,1013.11
2023-02-22T04:32:28.682Z,1013.09
2023-02-22T04:33:28.653Z,1013.09
2023-02-22T04:34:28.651Z,1013.04
2023-02-22T04:35:28.645Z,1013.05
2023-02-22T04:36:28.621Z,1013.04
2023-02-22T04:37:28.592Z,1013.04
2023-02-22T04:38:28.617Z,1013.02
2023-02-22T04:39:28.647Z,1012.97
2023-02-22T04:40:28.565Z,1012.99
2023-02-22T04:41:28.569Z,1013.00
2023-02-22T04:42:28.573Z,1012.99
2023-02-22T04:43:28.543Z,1012.96
2023-02-22T04:44:28.512Z,1012.97
2023-02-22T04:45:28.494Z,1013.00
2023-02-22T04:46:28.504Z,1013.00
2023-02-22T04:47:28.481Z,1012.98
2023-02-22T04:48:28.487Z,1012.94
2023-02-22T04:49:28.448Z,1012.88
2023-02-22T04:50:28.442Z,1012.94
2023-02-22T04:51:28.413Z,1012.91
2023-02-22T04:52:28.432Z,1012.93
2023-02-22T04:53:28.422Z,1012.88
2023-02-22T04:54:28.409Z,1012.88
2023-02-22T04:55:28.377Z,1012.89
2023-02-22T04:56:28.373Z,1012.84
2023-02-22T04:57:28.364Z,1012.87
2023-02-22T04:58:28.341Z,1012.78
2023-02-22T04:59:28.307Z,1012.81
2023-02-22T05:00:28.324Z,1012.82
2023-02-22T05:01:28.297Z,1012.80
2023-02-22T05:02:28.312Z,1012.75
2023-02-22T05:03:28.288Z,1012.76
2023-02-22T05:04:28.296Z,1012.72
2023-02-22T05:05:28.262Z,1012.74
2023-02-22T05:06:28.231Z,1012.70
2023-02-22T05:07:28.260Z,1012.68
2023-02-22T05:08:28.200Z,1012.68
2023-02-22T05:09:28.210Z,1012.68
2023-02-22T05:10:28.204Z,1012.65
2023-02-22T05:11:28.199Z,1012.64
2023-02-22T05:12:28.160Z,1012.64
2023-02-22T05:13:28.131Z,1012.61
2023-02-22T05:14:28.214Z,1012.62
2023-02-22T05:15:28.115Z,1012.62
2023-02-22T05:16:28.116Z,1012.62
2023-02-22T05:17:28.106Z,1012.59
2023-02-22T05:18:28.093Z,1012.61
2023-02-22T05:19:28.067Z,1012.59
2023-02-22T05:20:28.089Z,1012.59
2023-02-22T05:21:28.058Z,1012.56
2023-02-22T05:22:28.019Z,1012.57
2023-02-22T05:23:28.021Z,1012.57
2023-02-22T05:24:28.038Z,1012.57
2023-02-22T05:25:27.986Z,1012.55
2023-02-22T05:26:27.990Z,1012.59
2023-02-22T05:27:27.958Z,1012.58
2023-02-22T05:28:27.969Z,1012.58
2023-02-22T05:29:27.943Z,1012.58
2023-02-22T05:30:27.988Z,1012.61
2023-02-22T05:31:27.981Z,1012.59
2023-02-22T05:32:27.900Z,1012.57
2023-02-22T05:33:27.880Z,1012.57
2023-02-22T05:34:27.905Z,1012.53
2023-02-22T05:35:27.852Z,1012.57
2023-02-22T05:36:27.836Z,1012.53
2023-02-22T05:37:27.895Z,1012.54
2023-02-22T05:38:27.858Z,1012.50
2023-02-22T05:39:27.799Z,1012.53
2023-02-22T05:40:27.799Z,1012.53
2023-02-22T05:41:27.782Z,1012.50
2023-02-22T05:42:27.778Z,1012.51
2023-02-22T05:43:27.739Z,1012.47
2023-02-22T05:44:27.739Z,1012.45
2023-02-22T05:45:27.728Z,1012.45
2023-02-22T05:46:27.764Z,1012.40
2023-02-22T05:47:27.701Z,1012.41
2023-02-22T05:48:27.727Z,1012.45
2023-02-22T05:49:27.663Z,1012.42
2023-02-22T05:50:27.658Z,1012.43
2023-02-22T05:51:34.650Z,1012.45
2023-02-22T05:52:27.626Z,1012.40
2023-02-22T05:53:36.298Z,1012.41
2023-02-22T05:54:35.135Z,1012.39
2023-02-22T05:55:35.094Z,1012.35
2023-02-22T05:56:27.617Z,1012.36
2023-02-22T05:57:35.080Z,1012.37
2023-02-22T05:58:27.561Z,1012.38
2023-02-22T05:59:27.540Z,1012.35
2023-02-22T06:00:27.542Z,1012.35
2023-02-22T06:01:27.503Z,1012.35
2023-02-22T06:02:27.498Z,1012.36
2023-02-22T06:03:27.477Z,1012.33
2023-02-22T06:04:27.477Z,1012.39
2023-02-22T06:05:27.479Z,1012.35
2023-02-22T06:06:27.487Z,1012.34
2023-02-22T06:07:27.507Z,1012.35
2023-02-22T06:08:27.426Z,1012.37
2023-02-22T06:09:27.401Z,1012.31
2023-02-22T06:10:27.410Z,1012.34
2023-02-22T06:11:27.446Z,1012.31
2023-02-22T06:12:27.378Z,1012.32
2023-02-22T06:13:27.363Z,1012.33
2023-02-22T06:14:27.360Z,1012.32
2023-02-22T06:15:27.334Z,1012.32
2023-02-22T06:16:27.360Z,1012.34
2023-02-22T06:17:27.334Z,1012.36
2023-02-22T06:18:27.304Z,1012.30
2023-02-22T06:19:27.283Z,1012.37
2023-02-22T06:20:27.282Z,1012.33
2023-02-22T06:21:27.256Z,1012.35
2023-02-22T06:22:27.285Z,1012.34
2023-02-22T06:23:27.223Z,1012.33
2023-02-22T06:24:27.237Z,1012.36
2023-02-22T06:25:27.213Z,1012.33
2023-02-22T06:26:27.218Z,1012.34
2023-02-22T06:27:27.263Z,1012.35
2023-02-22T06:28:27.199Z,1012.34
2023-02-22T06:29:27.194Z,1012.31
2023-02-22T06:30:27.225Z,1012.32
2023-02-22T06:31:27.220Z,1012.31
2023-02-22T06:32:27.158Z,1012.30
2023-02-22T06:33:27.126Z,1012.27
2023-02-22T06:34:27.108Z,1012.30
2023-02-22T06:35:27.147Z,1012.29
2023-02-22T06:36:27.084Z,1012.26
2023-02-22T06:37:27.050Z,1012.26
2023-02-22T06:38:27.060Z,1012.26
2023-02-22T06:39:27.087Z,1012.26
2023-02-22T06:40:27.053Z,1012.29
2023-02-22T06:41:27.005Z,1012.23
2023-02-22T06:42:27.040Z,1012.26
2023-02-22T06:43:26.993Z,1012.21
2023-02-22T06:44:26.989Z,1012.23
2023-02-22T06:45:27.004Z,1012.22
2023-02-22T06:46:26.933Z,1012.22
2023-02-22T06:47:26.933Z,1012.24
2023-02-22T06:48:26.919Z,1012.17
2023-02-22T06:49:26.918Z,1012.22
2023-02-22T06:50:26.985Z,1012.19
2023-02-22T06:51:26.886Z,1012.18
2023-02-22T06:52:26.879Z,1012.20
2023-02-22T06:53:26.858Z,1012.18
2023-02-22T06:54:26.833Z,1012.17
2023-02-22T06:55:26.856Z,1012.15
2023-02-22T06:56:26.820Z,1012.20
2023-02-22T06:57:26.808Z,1012.17
2023-02-22T06:58:26.770Z,1012.19
2023-02-22T06:59:26.788Z,1012.19
2023-02-22T07:00:26.756Z,1012.18
2023-02-22T07:01:26.756Z,1012.19
2023-02-22T07:02:26.730Z,1012.21
2023-02-22T07:03:26.738Z,1012.20
2023-02-22T07:04:26.691Z,1012.18
2023-02-22T07:05:26.710Z,1012.22
2023-02-22T07:06:26.676Z,1012.24
2023-02-22T07:07:26.651Z,1012.21
2023-02-22T07:08:26.687Z,1012.23
2023-02-22T07:09:26.632Z,1012.21
2023-02-22T07:10:26.625Z,1012.23
2023-02-22T07:11:26.625Z,1012.21
2023-02-22T07:12:26.603Z,1012.25
2023-02-22T07:13:26.696Z,1012.25
2023-02-22T07:14:26.629Z,1012.25
2023-02-22T07:15:26.596Z,1012.19
2023-02-22T07:16:26.599Z,1012.19
2023-02-22T07:17:26.572Z,1012.18
2023-02-22T07:18:26.520Z,1012.20
2023-02-22T07:19:26.513Z,1012.21
2023-02-22T07:20:26.528Z,1012.21
2023-02-22T07:21:26.510Z,1012.20
2023-02-22T07:22:26.461Z,1012.21
2023-02-22T07:23:26.461Z,1012.23
2023-02-22T07:24:26.493Z,1012.20
2023-02-22T07:25:26.434Z,1012.22
2023-02-22T07:26:26.416Z,1012.21
2023-02-22T07:27:26.408Z,1012.21
2023-02-22T07:28:26.415Z,1012.22
2023-02-22T07:29:26.402Z,1012.19
2023-02-22T07:30:26.430Z,1012.22
2023-02-22T07:31:28.268Z,1012.16
2023-02-22T07:32:26.467Z,1012.17
2023-02-22T07:33:26.326Z,1012.13
2023-02-22T07:34:26.321Z,1012.14
2023-02-22T07:35:26.317Z,1012.13
2023-02-22T07:36:26.289Z,1012.08
2023-02-22T07:37:26.277Z,1012.07
2023-02-22T07:38:26.279Z,1012.06
2023-02-22T07:39:26.257Z,1012.05
2023-02-22T07:40:26.382Z,1012.10
2023-02-22T07:41:26.229Z,1012.09
2023-02-22T07:42:26.289Z,1012.11
2023-02-22T07:43:26.191Z,1012.08
2023-02-22T07:44:26.183Z,1012.09
2023-02-22T07:45:26.240Z,1012.12
2023-02-22T07:46:26.197Z,1012.09
2023-02-22T07:47:26.150Z,1012.07
2023-02-22T07:48:26.134Z,1012.06
2023-02-22T07:49:26.098Z,1012.06
2023-02-22T07:50:26.236Z,1012.03
2023-02-22T07:51:26.148Z,1012.05
2023-02-22T07:52:26.082Z,1012.03
2023-02-22T07:53:28.460Z,1012.00
2023-02-22T07:54:26.051Z,1011.99
2023-02-22T07:55:26.029Z,1011.98
2023-02-22T07:56:26.097Z,1011.99
2023-02-22T07:57:26.019Z,1011.97
2023-02-22T07:58:26.089Z,1011.98
2023-02-22T07:59:25.994Z,1011.97
2023-02-22T08:00:26.072Z,1011.96
2023-02-22T08:01:25.949Z,1011.96
2023-02-22T08:02:25.985Z,1011.97
2023-02-22T08:03:26.031Z,1011.99
2023-02-22T08:04:25.943Z,1011.96
2023-02-22T08:05:25.910Z,1011.96
2023-02-22T08:06:25.937Z,1011.97
2023-02-22T08:07:25.918Z,1011.94
2023-02-22T08:08:25.933Z,1011.94
2023-02-22T08:09:25.854Z,1011.89
2023-02-22T08:10:25.853Z,1011.94
2023-02-22T08:11:25.867Z,1011.92
2023-02-22T08:12:25.825Z,1011.93
2023-02-22T08:13:25.819Z,1011.93
2023-02-22T08:14:25.783Z,1011.85
2023-02-22T08:15:25.817Z,1011.91
2023-02-22T08:16:25.792Z,1011.85
2023-02-22T08:17:25.774Z,1011.86
2023-02-22T08:18:25.805Z,1011.84
2023-02-22T08:19:25.731Z,1011.85
2023-02-22T08:20:25.814Z,1011.83
2023-02-22T08:21:25.714Z,1011.80
2023-02-22T08:22:25.734Z,1011.86
2023-02-22T08:23:25.776Z,1011.83
2023-02-22T08:24:25.664Z,1011.81
2023-02-22T08:25:25.658Z,1011.78
2023-02-22T08:26:25.635Z,1011.80
2023-02-22T08:27:25.729Z,1011.78
2023-02-22T08:28:25.683Z,1011.80
2023-02-22T08:29:25.603Z,1011.77
2023-02-22T08:30:25.718Z,1011.77
2023-02-22T08:31:25.641Z,1011.79
2023-02-22T08:32:25.772Z,1011.74
2023-02-22T08:33:25.770Z,1011.80
2023-02-22T08:34:25.595Z,1011.80
2023-02-22T08:35:25.540Z,1011.78
2023-02-22T08:36:25.530Z,1011.76
2023-02-22T08:37:25.512Z,1011.78
2023-02-22T08:38:25.499Z,1011.74
2023-02-22T08:39:25.473Z,1011.79
2023-02-22T08:40:25.493Z,1011.76
2023-02-22T08:41:25.454Z,1011.75
2023-02-22T08:42:25.455Z,1011.75
2023-02-22T08:43:25.434Z,1011.76
2023-02-22T08:44:25.451Z,1011.75
2023-02-22T08:45:25.442Z,1011.74
2023-02-22T08:46:25.432Z,1011.73
2023-02-22T08:47:25.474Z,1011.74
2023-02-22T08:48:25.373Z,1011.68
2023-02-22T08:49:25.410Z,1011.71
2023-02-22T08:50:25.337Z,1011.69
2023-02-22T08:51:27.662Z,1011.74
2023-02-22T08:52:25.361Z,1011.70
2023-02-22T08:53:25.308Z,1011.69
2023-02-22T08:54:25.328Z,1011.72
2023-02-22T08:55:25.321Z,1011.67
2023-02-22T08:56:25.275Z,1011.64
2023-02-22T08:57:25.273Z,1011.67
2023-02-22T08:58:25.262Z,1011.65
2023-02-22T08:59:25.239Z,1011.67
2023-02-22T09:00:25.260Z,1011.64
2023-02-22T09:01:32.943Z,1011.59
2023-02-22T09:02:26.213Z,1011.62
2023-02-22T09:03:25.241Z,1011.61
2023-02-22T09:04:25.176Z,1011.62
2023-02-22T09:05:25.162Z,1011.65
2023-02-22T09:06:25.187Z,1011.63
2023-02-22T09:07:25.128Z,1011.61
2023-02-22T09:08:25.162Z,1011.60
2023-02-22T09:09:25.158Z,1011.60
2023-02-22T09:10:25.122Z,1011.55
2023-02-22T09:11:25.099Z,1011.52
2023-02-22T09:12:25.061Z,1011.56
2023-02-22T09:13:25.053Z,1011.58
2023-02-22T09:14:25.046Z,1011.58
2023-02-22T09:15:25.046Z,1011.57
2023-02-22T09:16:25.051Z,1011.58
2023-02-22T09:17:25.014Z,1011.58
2023-02-22T09:18:28.603Z,1011.54
2023-02-22T09:19:25.997Z,1011.58
2023-02-22T09:20:24.971Z,1011.53
2023-02-22T09:21:24.979Z,1011.52
2023-02-22T09:22:24.935Z,1011.50
2023-02-22T09:23:24.949Z,1011.50
2023-02-22T09:24:24.921Z,1011.55
2023-02-22T09:25:24.933Z,1011.53
2023-02-22T09:26:24.900Z,1011.50
2023-02-22T09:27:25.858Z,1011.50
2023-02-22T09:28:24.864Z,1011.49
2023-02-22T09:29:24.856Z,1011.49
2023-02-22T09:30:24.957Z,1011.47
2023-02-22T09:31:24.999Z,1011.43
2023-02-22T09:32:25.022Z,1011.41
2023-02-22T09:33:24.888Z,1011.44
2023-02-22T09:34:24.821Z,1011.45
2023-02-22T09:35:24.828Z,1011.48
2023-02-22T09:36:26.192Z,1011.38
2023-02-22T09:37:24.857Z,1011.41
2023-02-22T09:38:24.845Z,1011.40
2023-02-22T09:39:24.879Z,1011.41
2023-02-22T09:40:24.730Z,1011.38
2023-02-22T09:41:24.739Z,1011.41
2023-02-22T09:42:24.710Z,1011.39
2023-02-22T09:43:24.769Z,1011.41
2023-02-22T09:44:24.659Z,1011.39
2023-02-22T09:45:24.656Z,1011.38
2023-02-22T09:46:24.632Z,1011.40
2023-02-22T09:47:24.655Z,1011.36
2023-02-22T09:48:24.631Z,1011.42
2023-02-22T09:49:24.629Z,1011.40
2023-02-22T09:50:24.596Z,1011.39
2023-02-22T09:51:24.592Z,1011.39
2023-02-22T09:52:24.553Z,1011.36
2023-02-22T09:53:26.379Z,1011.39
2023-02-22T09:54:24.571Z,1011.40
2023-02-22T09:55:24.534Z,1011.40
2023-02-22T09:56:24.498Z,1011.38
2023-02-22T09:57:24.496Z,1011.37
2023-02-22T09:58:24.477Z,1011.38
2023-02-22T09:59:24.476Z,1011.35
2023-02-22T10:00:24.497Z,1011.32
2023-02-22T10:01:24.446Z,1011.29
2023-02-22T10:02:24.450Z,1011.31
2023-02-22T10:03:24.460Z,1011.27
2023-02-22T10:04:24.388Z,1011.30
2023-02-22T10:05:24.385Z,1011.27
2023-02-22T10:06:24.385Z,1011.24
2023-02-22T10:07:33.042Z,1011.26
2023-02-22T10:08:24.319Z,1011.29
2023-02-22T10:09:32.994Z,1011.22
2023-02-22T10:10:24.294Z,1011.23
2023-02-22T10:11:24.282Z,1011.21
2023-02-22T10:12:24.271Z,1011.23
2023-02-22T10:13:24.316Z,1011.19
2023-02-22T10:14:24.271Z,1011.16
2023-02-22T10:15:24.237Z,1011.15
2023-02-22T10:16:24.235Z,1011.16
2023-02-22T10:17:24.209Z,1011.13
2023-02-22T10:18:24.229Z,1011.19
2023-02-22T10:19:24.202Z,1011.16
2023-02-22T10:20:24.174Z,1011.16
2023-02-22T10:21:24.167Z,1011.16
2023-02-22T10:22:24.138Z,1011.17
2023-02-22T10:23:24.137Z,1011.14
2023-02-22T10:24:24.098Z,1011.16
2023-02-22T10:25:24.154Z,1011.11
2023-02-22T10:26:24.114Z,1011.09
2023-02-22T10:27:24.065Z,1011.05
2023-02-22T10:28:24.058Z,1011.06
2023-02-22T10:29:24.111Z,1011.05
2023-02-22T10:30:25.598Z,1011.05
2023-02-22T10:31:24.127Z,1011.01
2023-02-22T10:32:24.055Z,1011.06
2023-02-22T10:33:24.016Z,1011.02
2023-02-22T10:34:23.970Z,1011.04
2023-02-22T10:35:23.977Z,1011.05
2023-02-22T10:36:23.946Z,1011.05
2023-02-22T10:37:23.971Z,1011.02
2023-02-22T10:38:23.925Z,1010.96
2023-02-22T10:39:23.949Z,1010.97
2023-02-22T10:40:23.912Z,1010.94
2023-02-22T10:41:23.879Z,1010.91
2023-02-22T10:42:23.878Z,1010.90
2023-02-22T10:43:23.869Z,1010.90
2023-02-22T10:44:23.834Z,1010.87
2023-02-22T10:45:23.845Z,1010.85
2023-02-22T10:46:23.817Z,1010.84
2023-02-22T10:47:23.778Z,1010.83
2023-02-22T10:48:23.780Z,1010.80
2023-02-22T10:49:23.769Z,1010.74
2023-02-22T10:50:23.781Z,1010.74
2023-02-22T10:51:23.764Z,1010.71
2023-02-22T10:52:23.731Z,1010.72
2023-02-22T10:53:23.700Z,1010.69
2023-02-22T10:54:23.670Z,1010.67
2023-02-22T10:55:23.658Z,1010.64
2023-02-22T10:56:23.676Z,1010.60
2023-02-22T10:57:23.645Z,1010.62
2023-02-22T10:58:23.985Z,1010.61
2023-02-22T10:59:25.604Z,1010.62
2023-02-22T11:00:23.630Z,1010.62
2023-02-22T11:01:23.664Z,1010.63
2023-02-22T11:02:23.589Z,1010.64
2023-02-22T11:03:23.633Z,1010.56
2023-02-22T11:04:23.548Z,1010.55
2023-02-22T11:05:23.528Z,1010.52
2023-02-22T11:06:23.507Z,1010.53
2023-02-22T11:07:23.509Z,1010.48
2023-02-22T11:08:23.507Z,1010.47
2023-02-22T11:09:23.474Z,1010.49
2023-02-22T11:10:23.466Z,1010.49
2023-02-22T11:11:23.469Z,1010.42
2023-02-22T11:12:23.436Z,1010.47
2023-02-22T11:13:23.447Z,1010.42
2023-02-22T11:14:23.467Z,1010.43
2023-02-22T11:15:23.425Z,1010.45
2023-02-22T11:16:23.697Z,1010.42
2023-02-22T11:17:23.376Z,1010.45
2023-02-22T11:18:23.325Z,1010.41
2023-02-22T11:19:23.474Z,1010.47
2023-02-22T11:20:23.311Z,1010.44
2023-02-22T11:21:23.299Z,1010.41
2023-02-22T11:22:23.305Z,1010.42
2023-02-22T11:23:23.321Z,1010.36
2023-02-22T11:24:23.260Z,1010.36
2023-02-22T11:25:23.239Z,1010.30
2023-02-22T11:26:23.228Z,1010.32
2023-02-22T11:27:23.233Z,1010.30
2023-02-22T11:28:23.239Z,1010.35
2023-02-22T11:29:23.198Z,1010.33
2023-02-22T11:30:23.201Z,1010.33
2023-02-22T11:31:23.271Z,1010.32
2023-02-22T11:32:23.357Z,1010.27
2023-02-22T11:33:23.153Z,1010.26
2023-02-22T11:34:23.140Z,1010.22
2023-02-22T11:35:23.111Z,1010.22
2023-02-22T11:36:23.105Z,1010.21
2023-02-22T11:37:23.079Z,1010.24
2023-02-22T11:38:23.086Z,1010.23
2023-02-22T11:39:23.120Z,1010.23
2023-02-22T11:40:23.044Z,1010.20
2023-02-22T11:41:23.070Z,1010.13
2023-02-22T11:42:23.010Z,1010.13
2023-02-22T11:43:23.014Z,1010.10
2023-02-22T11:44:22.993Z,1010.12
2023-02-22T11:45:23.004Z,1010.11
2023-02-22T11:46:23.009Z,1010.13
2023-02-22T11:47:22.937Z,1010.13
2023-02-22T11:48:22.927Z,1010.12
2023-02-22T11:49:22.969Z,1010.10
2023-02-22T11:50:22.900Z,1010.09
2023-02-22T11:51:22.896Z,1010.09
2023-02-22T11:52:22.946Z,1010.09
2023-02-22T11:53:22.869Z,1010.13
2023-02-22T11:54:22.876Z,1010.14
2023-02-22T11:55:36.482Z,1010.05
2023-02-22T11:56:36.856Z,1010.04
2023-02-22T11:57:23.820Z,1010.04
2023-02-22T11:58:22.786Z,1010.03
2023-02-22T11:59:22.814Z,1009.96
2023-02-22T12:00:22.779Z,1009.96
2023-02-22T12:01:22.742Z,1009.96
2023-02-22T12:02:22.746Z,1009.92
2023-02-22T12:03:22.799Z,1009.88
2023-02-22T12:04:22.735Z,1009.83
2023-02-22T12:05:22.687Z,1009.84